Avondale, Ohio
Current Conditions -  °F | °C
As of 2:53 PM on Friday 24 Oct 2014 (Local Time) from KLUK Reporting Station
Clear Clear  
Wind Chill: 64°   Ceiling: Unl
Heat Index: 64°   Visibility: 10mi
Dew Point: 43°   Wind: 7mph
Humidity: 46%   Direction: 180°S
Pressure: 30.05"   Gusts: NA
Location:  39.1532°N, 84.4859°W
Report Text: KLUK 241853Z 18006KT 10SM CLR 18/06 A3005 RMK AO2 SLP176 T01780061
Loading
Personal Weather Stations






























Interactive Weather Map
Tropical Storm Tracking
New forecast layout! Learn more

10-Day Weather Forecast

Advertisements
Track Severe Weather on mobile